METAR Data
IDs: Format: Raw Decoded Include TAF

Data at: 1426 UTC 22 Apr 2021

K42J 221415Z AUTO 07010KT 9SM CLR 15/M00 A3017 RMK A01 TSNO
K42J 221355Z AUTO 05009KT 10SM CLR 14/M01 A3017 RMK A01 TSNO
K42J 221335Z AUTO 01009KT 340V040 9SM CLR 13/M02 A3017 RMK A01 TSNO
K42J 221315Z AUTO 02006KT 10SM CLR 12/M03 A3017 RMK A01 TSNO
K42J 221255Z AUTO 04007G13KT 9SM CLR 12/M04 A3017 RMK A01 TSNO
K42J 221235Z AUTO 36010KT 10SM CLR 11/M04 A3017 RMK A01 TSNO
K42J 221215Z AUTO 01006KT 10SM CLR 10/M04 A3017 RMK A01 TSNO
K42J 221155Z AUTO 36005KT 10SM CLR 10/M04 A3017 RMK A01 TSNO
K42J 221135Z AUTO 02005KT 10SM CLR 10/M04 A3015 RMK A01 TSNO
K42J 221115Z AUTO 01007G12KT 10SM CLR 10/M04 A3014 RMK A01 TSNO
K42J 221055Z AUTO 01006KT 10SM CLR 10/M03 A3013 RMK A01 TSNO
K42J 221035Z AUTO 35004KT 10SM SCT048 BKN055 10/M03 A3011 RMK A01 TSNO
K42J 221015Z AUTO 01007G12KT 10SM BKN047 OVC060 10/M04 A3010 RMK A01 TSNO
K42J 220955Z AUTO 01007KT 10SM FEW032 BKN045 OVC050 11/M03 A3009 RMK A01 TSNO
K42J 220935Z AUTO 01007KT 10SM FEW032 FEW046 OVC055 11/M02 A3009 RMK A01 TSNO
K42J 220915Z AUTO 36006KT 10SM OVC055 11/M01 A3009 RMK A01 TSNO
K42J 220855Z AUTO 01006KT 10SM FEW033 FEW047 OVC055 12/M02 A3008 RMK A01 TSNO
K42J 220835Z AUTO 35007KT 10SM FEW033 SCT047 OVC055 12/M02 A3008 RMK A01 TSNO
K42J 220815Z AUTO 35007G13KT 10SM SCT031 BKN047 OVC055 13/M02 A3007 RMK A01 TSNO
K42J 220755Z AUTO 35010KT 10SM BKN032 OVC046 13/M02 A3006 RMK A01 TSNO
K42J 220735Z AUTO 35009G17KT 10SM BKN031 OVC048 14/M01 A3006 RMK A01 TSNO
K42J 220715Z AUTO 35006KT 10SM BKN029 BKN036 OVC050 14/M00 A3005 RMK A01 TSNO
K42J 220655Z AUTO 35008G14KT 10SM BKN030 OVC036 15/M01 A3005 RMK A01 TSNO
K42J 220635Z AUTO 34010G16KT 10SM FEW025 OVC032 15/M00 A3004 RMK A01 TSNO
K42J 220615Z AUTO 34008G13KT 10SM FEW024 BKN029 OVC065 16/03 A3004 RMK A01 TSNO
K42J 220555Z AUTO 34009KT 10SM SCT026 BKN034 OVC065 16/04 A3004 RMK A01 TSNO
K42J 220535Z AUTO 34009KT 10SM FEW025 SCT041 OVC065 17/05 A3004 RMK A01 TSNO
K42J 220515Z AUTO 33008KT 10SM FEW035 FEW042 BKN070 16/08 A3004 RMK A01 TSNO
K42J 220455Z AUTO 33007KT 10SM FEW036 SCT045 BKN070 16/09 A3004 RMK A01 TSNO
K42J 220435Z AUTO 32007KT 10SM FEW030 SCT035 BKN044 17/10 A3004 RMK A01 TSNO
K42J 220415Z AUTO 32009KT 10SM SCT028 SCT034 BKN044 17/12 A3003 RMK A01 TSNO
K42J 220355Z AUTO 30006KT 10SM SCT032 BKN038 BKN046 17/13 A3003 RMK A01 TSNO
K42J 220335Z AUTO 30004KT 10SM BKN034 BKN039 17/13 A3002 RMK A01 TSNO
K42J 220315Z AUTO 30005KT 10SM BKN033 17/13 A3003 RMK A01 TSNO
K42J 220255Z AUTO 29006KT 10SM BKN033 BKN039 BKN047 18/12 A3002 RMK A01 TSNO
K42J 220235Z AUTO 28007KT 10SM FEW032 BKN039 BKN047 19/12 A3002 RMK A01 TSNO
K42J 220215Z AUTO 26007KT 10SM FEW040 SCT049 19/12 A3001 RMK A01 TSNO
K42J 220155Z AUTO 25006KT 10SM FEW048 FEW055 19/12 A3000 RMK A01 TSNO
K42J 220135Z AUTO 25007KT 10SM FEW050 FEW060 19/11 A2999 RMK A01 TSNO
K42J 220115Z AUTO 24006KT 10SM FEW055 19/10 A2997 RMK A01 TSNO
K42J 220055Z AUTO 00000KT 10SM FEW055 20/09 A2996 RMK A01 TSNO
K42J 220035Z AUTO 29004KT 10SM FEW055 21/08 A2995 RMK A01 TSNO
K42J 220015Z AUTO 28004KT 10SM CLR 22/07 A2994 RMK A01 TSNO
K42J 212355Z AUTO 27006KT 10SM CLR 24/07 A2994 RMK A01 TSNO
K42J 212335Z AUTO 27006KT 10SM CLR 25/07 A2994 RMK A01 TSNO
K42J 212315Z AUTO 27006KT 10SM CLR 26/06 A2993 RMK A01 TSNO
K42J 212255Z AUTO 30009KT 10SM CLR 26/06 A2993 RMK A01 TSNO
K42J 212235Z AUTO 27009G14KT 10SM CLR 27/05 A2993 RMK A01 TSNO
K42J 212215Z AUTO 29012G17KT 9SM CLR 28/05 A2992 RMK A01 TSNO
K42J 212155Z AUTO 28010G16KT 9SM CLR 28/05 A2992 RMK A01 TSNO
K42J 212135Z AUTO 27011KT 9SM CLR 28/06 A2992 RMK A01 TSNO
K42J 212115Z AUTO 27009G16KT 9SM CLR 28/06 A2992 RMK A01 TSNO
K42J 212055Z AUTO 30013G19KT 10SM CLR 28/05 A2992 RMK A01 TSNO
K42J 212035Z AUTO 28009G15KT 10SM CLR 28/06 A2992 RMK A01 TSNO
K42J 212015Z AUTO 30015KT 10SM CLR 29/06 A2992 RMK A01 TSNO
K42J 211955Z AUTO 27014KT 10SM CLR 28/06 A2993 RMK A01 TSNO
K42J 211935Z AUTO 26014G19KT 10SM CLR 28/06 A2994 RMK A01 TSNO
K42J 211915Z AUTO 28011G18KT 10SM CLR 28/06 A2994 RMK A01 TSNO
K42J 211855Z AUTO 29012G18KT 9SM CLR 28/06 A2995 RMK A01 TSNO
K42J 211835Z AUTO 25011KT 10SM CLR 28/06 A2995 RMK A01 TSNO
K42J 211815Z AUTO 29009G17KT 260V320 10SM CLR 27/07 A2996 RMK A01 TSNO
K42J 211755Z AUTO VRB06G18KT 10SM CLR 27/06 A2997 RMK A01 TSNO
K42J 211735Z AUTO 27012KT 10SM CLR 27/06 A2997 RMK A01 TSNO
K42J 211715Z AUTO 31006G13KT 9SM CLR 27/07 A2998 RMK A01 TSNO
K42J 211655Z AUTO 30008KT 10SM CLR 26/08 A2999 RMK A01 TSNO
K42J 211635Z AUTO 31008G15KT 10SM CLR 26/08 A2999 RMK A01 TSNO
K42J 211615Z AUTO 30008G15KT 10SM CLR 26/08 A2999 RMK A01 TSNO
K42J 211555Z AUTO 30011G17KT 10SM CLR 26/08 A3000 RMK A01 TSNO
K42J 211535Z AUTO 30011KT 10SM CLR 25/08 A3000 RMK A01 TSNO
K42J 211515Z AUTO VRB05G12KT 9SM CLR 25/09 A3000 RMK A01 TSNO
K42J 211455Z AUTO 34007G13KT 9SM CLR 25/09 A3000 RMK A01 TSNO
K42J 211435Z AUTO VRB06KT 10SM CLR 24/11 A3000 RMK A01 TSNO
K42J 211415Z AUTO 33006G12KT 9SM CLR 23/13 A3000 RMK A01 TSNO
K42J 211355Z AUTO 31005G11KT 10SM CLR 22/15 A3000 RMK A01 TSNO
K42J 211335Z AUTO 31006KT 10SM CLR 21/16 A3000 RMK A01 TSNO
K42J 211315Z AUTO 31006KT 9SM CLR 19/19 A3000 RMK A01 TSNO
K42J 211255Z AUTO 29004KT 9SM CLR 18/18 A2999 RMK A01 TSNO
K42J 211235Z AUTO VRB03KT 8SM CLR 18/18 A2999 RMK A01 TSNO
K42J 211215Z AUTO 00000KT 2 1/2SM BR CLR 17/17 A2999 RMK A01 TSNO
K42J 211155Z AUTO 00000KT 2SM BR CLR 16/16 A2999 RMK A01 TSNO
K42J 211135Z AUTO 00000KT 1/4SM FG BKN002 15/15 A2999 RMK A01 TSNO
K42J 211115Z AUTO 00000KT 3SM BR FEW002 15/15 A2998 RMK A01 TSNO
K42J 211055Z AUTO 00000KT 1/4SM FG VV002 15/15 A2997 RMK A01 TSNO
K42J 211035Z AUTO 00000KT 2SM BR FEW020 FEW026 SCT080 15/15 A2997 RMK A01 TSNO
K42J 211015Z AUTO 00000KT M1/4SM FG OVC022 15/15 A2997 RMK A01 TSNO
K42J 210955Z AUTO 00000KT 3SM BR BKN022 BKN028 BKN039 15/15 A2996 RMK A01 TSNO
K42J 210935Z AUTO 00000KT 8SM BKN022 BKN027 BKN040 15/15 A2996 RMK A01 TSNO
K42J 210915Z AUTO 00000KT 5SM BR BKN019 BKN025 15/15 A2995 RMK A01 TSNO
K42J 210855Z AUTO 00000KT 7SM 15/15 A2995 RMK A01 TSNO
K42J 210835Z AUTO 00000KT 3SM BR 15/15 A2995 RMK A01 TSNO
K42J 210815Z AUTO 00000KT 4SM BR 15/15 A2994 RMK A01 TSNO
K42J 210755Z AUTO 00000KT 6SM BR BKN023 BKN028 OVC085 16/16 A2994 RMK A01 TSNO
K42J 210735Z AUTO 00000KT 5SM BR 15/15 A2994 RMK A01 TSNO
K42J 210715Z AUTO 00000KT 6SM BR BKN024 BKN037 OVC050 15/15 A2993 RMK A01 TSNO
K42J 210655Z AUTO 00000KT 6SM BR BKN024 BKN028 OVC085 15/15 A2993 RMK A01 TSNO
K42J 210635Z AUTO 00000KT 6SM BR SCT024 BKN029 OVC090 15/15 A2994 RMK A01 TSNO
K42J 210615Z AUTO 31004KT 7SM BKN030 BKN036 BKN055 15/15 A2995 RMK A01 TSNO
K42J 210555Z AUTO 00000KT 8SM BKN033 BKN090 15/15 A2996 RMK A01 TSNO
K42J 210535Z AUTO 00000KT 9SM OVC034 15/15 A2997 RMK A01 TSNO
K42J 210515Z AUTO 00000KT 9SM BKN028 OVC035 15/15 A2997 RMK A01 TSNO
K42J 210455Z AUTO 00000KT 9SM BKN028 OVC036 15/15 A2997 RMK A01 TSNO
K42J 210435Z AUTO 00000KT 10SM SCT030 BKN038 OVC049 16/16 A2997 RMK A01 TSNO
K42J 210415Z AUTO 00000KT 9SM BKN034 BKN040 BKN048 16/16 A2997 RMK A01 TSNO
K42J 210355Z AUTO 00000KT 10SM BKN033 BKN048 16/16 A2996 RMK A01 TSNO
K42J 210335Z AUTO 00000KT 10SM BKN034 BKN041 OVC047 16/16 A2996 RMK A01 TSNO
K42J 210315Z AUTO 00000KT 10SM BKN034 BKN042 17/17 A2995 RMK A01 TSNO
K42J 210255Z AUTO 00000KT 10SM OVC035 17/17 A2995 RMK A01 TSNO
K42J 210235Z AUTO 00000KT 10SM OVC036 18/17 A2995 RMK A01 TSNO